createdAt,value
2022-11-15T00:01:00.031Z,8.07
2022-11-15T00:03:45.857Z,8.12
2022-11-15T00:06:31.195Z,8.17
2022-11-15T00:09:16.331Z,8.19
2022-11-15T00:12:01.256Z,8.22
2022-11-15T00:14:46.080Z,8.18
2022-11-15T00:17:31.042Z,8.07
2022-11-15T00:20:16.098Z,8.11
2022-11-15T00:23:01.360Z,8.07
2022-11-15T00:25:46.382Z,7.91
2022-11-15T00:28:31.243Z,7.77
2022-11-15T00:31:16.245Z,7.66
2022-11-15T00:34:01.082Z,7.34
2022-11-15T00:36:46.024Z,7.07
2022-11-15T00:39:30.881Z,6.98
2022-11-15T00:42:15.889Z,6.78
2022-11-15T00:45:00.808Z,6.76
2022-11-15T00:47:47.152Z,6.92
2022-11-15T00:50:32.087Z,6.80
2022-11-15T00:53:17.584Z,6.77
2022-11-15T00:56:02.601Z,6.80
2022-11-15T00:58:47.639Z,6.78
2022-11-15T01:01:32.655Z,6.70
2022-11-15T01:04:17.611Z,6.55
2022-11-15T01:07:02.832Z,6.67
2022-11-15T01:09:48.027Z,6.78
2022-11-15T01:12:32.999Z,6.83
2022-11-15T01:15:18.601Z,6.76
2022-11-15T01:18:03.847Z,6.52
2022-11-15T01:20:48.983Z,6.24
2022-11-15T01:23:34.015Z,5.93
2022-11-15T01:26:19.296Z,5.85
2022-11-15T01:29:04.365Z,5.80
2022-11-15T01:31:49.448Z,5.84
2022-11-15T01:34:34.294Z,5.82
2022-11-15T01:37:19.063Z,5.82
2022-11-15T01:40:04.570Z,5.78
2022-11-15T01:42:49.421Z,5.80
2022-11-15T01:45:34.301Z,5.80
2022-11-15T01:48:19.508Z,5.78
2022-11-15T01:51:10.042Z,5.77
2022-11-15T01:53:59.569Z,5.85
2022-11-15T01:56:51.817Z,5.76
2022-11-15T01:59:40.904Z,5.62
2022-11-15T02:02:26.439Z,5.64
2022-11-15T02:05:12.085Z,5.50
2022-11-15T02:07:57.948Z,5.47
2022-11-15T02:10:43.023Z,5.55
2022-11-15T02:13:28.952Z,5.77
2022-11-15T02:16:53.610Z,5.94
2022-11-15T02:20:01.990Z,6.11
2022-11-15T02:23:07.177Z,6.32
2022-11-15T02:26:23.101Z,6.55
2022-11-15T02:29:15.727Z,6.75
2022-11-15T02:32:22.717Z,6.87
2022-11-15T02:35:21.578Z,6.99
2022-11-15T02:38:26.015Z,7.11
2022-11-15T02:41:16.416Z,7.18
2022-11-15T02:44:24.699Z,7.19
2022-11-15T02:47:14.556Z,7.20
2022-11-15T02:50:08.139Z,7.19
2022-11-15T02:52:53.812Z,7.15
2022-11-15T02:55:49.386Z,7.16
2022-11-15T02:59:10.331Z,7.23
2022-11-15T03:02:16.883Z,7.38
2022-11-15T03:05:22.838Z,7.48
2022-11-15T03:08:32.459Z,7.54
2022-11-15T03:11:23.798Z,7.57
2022-11-15T03:14:26.512Z,7.54
2022-11-15T03:17:26.660Z,7.44
2022-11-15T03:20:14.718Z,7.44
2022-11-15T03:23:09.144Z,7.42
2022-11-15T03:25:55.869Z,7.44
2022-11-15T03:28:54.459Z,7.52
2022-11-15T03:31:50.340Z,7.43
2022-11-15T03:34:35.798Z,7.38
2022-11-15T03:37:26.162Z,7.34
2022-11-15T03:40:11.720Z,7.35
2022-11-15T03:43:07.334Z,7.34
2022-11-15T03:46:00.457Z,7.34
2022-11-15T03:48:51.078Z,7.28
2022-11-15T03:51:36.190Z,7.24
2022-11-15T03:54:21.286Z,7.22
2022-11-15T03:57:06.230Z,7.14
2022-11-15T03:59:50.992Z,7.16
2022-11-15T04:02:35.858Z,7.05
2022-11-15T04:05:20.899Z,7.02
2022-11-15T04:08:05.751Z,6.98
2022-11-15T04:10:50.964Z,7.02
2022-11-15T04:13:35.767Z,7.23
2022-11-15T04:16:20.706Z,7.19
2022-11-15T04:19:24.482Z,7.03
2022-11-15T04:22:28.291Z,6.97
2022-11-15T04:25:13.568Z,6.78
2022-11-15T04:27:58.833Z,6.73
2022-11-15T04:30:43.804Z,6.82
2022-11-15T04:33:28.932Z,6.73
2022-11-15T04:36:32.725Z,6.87
2022-11-15T04:39:18.025Z,7.06
2022-11-15T04:42:03.200Z,7.11
2022-11-15T04:44:48.006Z,7.13
2022-11-15T04:47:32.960Z,7.32
2022-11-15T04:50:18.205Z,7.49
2022-11-15T04:53:03.179Z,7.34
2022-11-15T04:55:48.163Z,7.09
2022-11-15T04:58:33.177Z,7.01
2022-11-15T05:01:18.628Z,6.92
2022-11-15T05:04:22.228Z,6.86
2022-11-15T05:07:07.180Z,6.80
2022-11-15T05:09:52.360Z,6.78
2022-11-15T05:12:37.540Z,6.74
2022-11-15T05:15:22.918Z,6.67
2022-11-15T05:18:07.796Z,6.70
2022-11-15T05:20:52.757Z,6.75
2022-11-15T05:23:37.936Z,6.76
2022-11-15T05:26:22.848Z,6.52
2022-11-15T05:29:10.980Z,6.61
2022-11-15T05:31:56.084Z,6.68
2022-11-15T05:34:41.320Z,6.75
2022-11-15T05:37:26.124Z,6.54
2022-11-15T05:40:10.988Z,6.61
2022-11-15T05:42:55.860Z,6.70
2022-11-15T05:45:41.099Z,6.47
2022-11-15T05:48:26.587Z,6.52
2022-11-15T05:51:14.784Z,6.77
2022-11-15T05:54:01.619Z,6.89
2022-11-15T05:56:46.985Z,6.97
2022-11-15T05:59:32.836Z,7.01
2022-11-15T06:02:17.856Z,6.97
2022-11-15T06:05:02.769Z,7.02
2022-11-15T06:07:47.927Z,7.22
2022-11-15T06:10:33.574Z,7.48
2022-11-15T06:13:18.474Z,7.67
2022-11-15T06:16:03.646Z,7.88
2022-11-15T06:18:48.834Z,7.92
2022-11-15T06:21:34.004Z,7.90
2022-11-15T06:24:19.026Z,7.86
2022-11-15T06:27:04.036Z,7.86
2022-11-15T06:29:49.168Z,7.86
2022-11-15T06:32:34.124Z,7.82
2022-11-15T06:35:19.266Z,7.76
2022-11-15T06:38:14.328Z,7.80
2022-11-15T06:41:04.387Z,7.75
2022-11-15T06:43:49.479Z,7.83
2022-11-15T06:46:34.375Z,7.87
2022-11-15T06:49:19.128Z,7.89
2022-11-15T06:52:04.218Z,7.93
2022-11-15T06:54:49.461Z,8.00
2022-11-15T06:57:34.392Z,7.96
2022-11-15T07:00:21.285Z,8.24
2022-11-15T07:03:06.563Z,8.49
2022-11-15T07:05:54.275Z,8.55
2022-11-15T07:08:39.251Z,8.63
2022-11-15T07:11:24.139Z,8.73
2022-11-15T07:14:09.331Z,8.76
2022-11-15T07:16:54.099Z,8.80
2022-11-15T07:19:39.035Z,8.89
2022-11-15T07:22:23.888Z,8.84
2022-11-15T07:25:10.022Z,8.85
2022-11-15T07:27:59.431Z,8.88
2022-11-15T07:30:45.525Z,8.91
2022-11-15T07:33:30.618Z,8.98
2022-11-15T07:36:15.739Z,8.96
2022-11-15T07:39:00.591Z,8.93
2022-11-15T07:41:45.615Z,8.93
2022-11-15T07:44:30.549Z,8.95
2022-11-15T07:47:15.824Z,8.93
2022-11-15T07:50:01.076Z,9.02
2022-11-15T07:52:46.136Z,9.10
2022-11-15T07:55:31.159Z,9.16
2022-11-15T07:58:16.048Z,9.17
2022-11-15T08:01:05.237Z,9.21
2022-11-15T08:03:50.259Z,9.22
2022-11-15T08:06:35.177Z,9.34
2022-11-15T08:09:20.495Z,9.44
2022-11-15T08:12:06.376Z,9.48
2022-11-15T08:14:51.162Z,9.65
2022-11-15T08:17:36.317Z,9.65
2022-11-15T08:20:21.275Z,9.66
2022-11-15T08:23:07.076Z,9.71
2022-11-15T08:25:51.874Z,9.91
2022-11-15T08:28:36.898Z,9.96
2022-11-15T08:31:21.684Z,9.97
2022-11-15T08:34:07.077Z,10.14
2022-11-15T08:36:51.985Z,10.25
2022-11-15T08:39:36.917Z,10.25
2022-11-15T08:42:22.058Z,10.31
2022-11-15T08:45:08.552Z,10.27
2022-11-15T08:47:54.633Z,10.56
2022-11-15T08:50:39.621Z,10.48
2022-11-15T08:53:24.838Z,10.43
2022-11-15T08:56:11.952Z,10.55
2022-11-15T08:58:57.202Z,10.70
2022-11-15T09:01:42.345Z,10.88
2022-11-15T09:04:27.110Z,10.88
2022-11-15T09:07:12.802Z,10.80
2022-11-15T09:09:58.136Z,10.91
2022-11-15T09:12:44.118Z,10.85
2022-11-15T09:15:29.268Z,11.03
2022-11-15T09:18:14.295Z,11.22
2022-11-15T09:21:00.644Z,11.26
2022-11-15T09:23:46.008Z,11.15
2022-11-15T09:26:31.302Z,10.97
2022-11-15T09:29:16.225Z,11.05
2022-11-15T09:32:01.176Z,11.06
2022-11-15T09:34:46.443Z,11.03
2022-11-15T09:37:33.177Z,11.11
2022-11-15T09:40:21.398Z,11.24
2022-11-15T09:43:50.984Z,11.45
2022-11-15T09:47:03.461Z,11.60
2022-11-15T09:49:46.655Z,11.60
2022-11-15T09:52:20.254Z,11.46
2022-11-15T09:54:55.202Z,11.60
2022-11-15T09:57:25.192Z,11.64
2022-11-15T10:02:59.049Z,11.40
2022-11-15T10:05:27.048Z,11.30
2022-11-15T10:08:04.314Z,11.38
2022-11-15T10:10:43.719Z,11.22
2022-11-15T10:13:17.813Z,11.21
2022-11-15T10:15:46.543Z,11.30
2022-11-15T10:18:29.388Z,11.47
2022-11-15T10:21:00.872Z,11.46
2022-11-15T10:23:28.653Z,11.51
2022-11-15T10:26:03.673Z,11.41
2022-11-15T10:28:33.223Z,11.47
2022-11-15T10:31:05.590Z,11.47
2022-11-15T10:33:35.083Z,11.45
2022-11-15T10:36:26.112Z,11.42
2022-11-15T10:38:52.581Z,11.35
2022-11-15T10:41:27.920Z,11.36
2022-11-15T10:44:32.439Z,11.55
2022-11-15T10:47:05.559Z,11.65
2022-11-15T10:49:33.918Z,11.41
2022-11-15T10:52:05.329Z,11.32
2022-11-15T10:54:38.755Z,11.52
2022-11-15T10:57:22.780Z,11.53
2022-11-15T10:59:55.652Z,11.42
2022-11-15T11:02:30.170Z,11.46
2022-11-15T11:04:57.100Z,11.40
2022-11-15T11:07:32.555Z,11.54
2022-11-15T11:10:01.919Z,11.39
2022-11-15T11:12:32.283Z,11.56
2022-11-15T11:15:01.910Z,11.53
2022-11-15T11:17:43.802Z,11.55
2022-11-15T11:20:21.592Z,11.56
2022-11-15T11:23:18.368Z,11.64
2022-11-15T11:26:02.644Z,11.68
2022-11-15T11:28:47.872Z,11.77
2022-11-15T11:31:21.024Z,11.83
2022-11-15T11:34:10.651Z,11.84
2022-11-15T11:36:52.043Z,11.91
2022-11-15T11:39:33.889Z,12.11
2022-11-15T11:42:00.260Z,12.23
2022-11-15T11:44:26.607Z,12.25
2022-11-15T11:46:59.128Z,12.50
2022-11-15T11:49:47.408Z,12.59
2022-11-15T11:52:19.727Z,12.65
2022-11-15T11:54:56.436Z,12.68
2022-11-15T11:57:32.795Z,12.65
2022-11-15T12:00:18.448Z,12.73
2022-11-15T12:03:10.172Z,12.77
2022-11-15T12:05:40.290Z,12.83
2022-11-15T12:08:36.837Z,12.83
2022-11-15T12:11:09.296Z,12.91
2022-11-15T12:13:37.718Z,12.87
2022-11-15T12:16:43.127Z,12.83
2022-11-15T12:19:09.630Z,12.65
2022-11-15T12:21:47.690Z,12.68
2022-11-15T12:24:21.410Z,12.72
2022-11-15T12:27:02.630Z,12.77
2022-11-15T12:29:37.554Z,12.82
2022-11-15T12:32:05.520Z,12.75
2022-11-15T12:34:41.336Z,12.70
2022-11-15T12:37:36.613Z,12.70
2022-11-15T12:40:24.188Z,12.81
2022-11-15T12:43:06.021Z,12.83
2022-11-15T12:45:34.448Z,12.82
2022-11-15T12:48:26.552Z,12.90
2022-11-15T12:50:54.385Z,12.96
2022-11-15T12:53:23.900Z,13.07
2022-11-15T12:56:05.437Z,13.19
2022-11-15T12:58:53.767Z,13.27
2022-11-15T13:01:36.044Z,13.25
2022-11-15T13:04:29.792Z,13.40
2022-11-15T13:06:58.329Z,13.45
2022-11-15T13:09:37.191Z,13.56
2022-11-15T13:12:22.529Z,13.52
2022-11-15T13:14:52.406Z,13.67
2022-11-15T13:17:41.281Z,13.65
2022-11-15T13:20:07.647Z,13.48
2022-11-15T13:23:04.582Z,13.44
2022-11-15T13:25:40.025Z,13.49
2022-11-15T13:28:15.566Z,13.49
2022-11-15T13:31:19.499Z,13.23
2022-11-15T13:33:45.979Z,13.07
2022-11-15T13:36:28.247Z,12.77
2022-11-15T13:39:07.328Z,12.70
2022-11-15T13:41:36.064Z,12.67
2022-11-15T13:44:04.464Z,12.65
2022-11-15T13:46:35.028Z,12.66
2022-11-15T13:49:08.817Z,12.76
2022-11-15T13:51:45.942Z,12.66
2022-11-15T13:54:21.825Z,12.48
2022-11-15T13:56:53.346Z,12.50
2022-11-15T13:59:37.787Z,12.33
2022-11-15T14:02:17.975Z,12.31
2022-11-15T14:04:51.278Z,12.31
2022-11-15T14:07:20.808Z,12.16
2022-11-15T14:09:48.000Z,12.19
2022-11-15T14:12:50.787Z,12.18
2022-11-15T14:15:20.110Z,12.16
2022-11-15T14:17:49.980Z,12.13
2022-11-15T14:20:39.511Z,12.05
2022-11-15T14:23:27.632Z,12.12
2022-11-15T14:25:58.735Z,12.17
2022-11-15T14:28:25.091Z,12.10
2022-11-15T14:30:53.861Z,11.97
2022-11-15T14:33:25.952Z,12.05
2022-11-15T14:35:53.756Z,12.10
2022-11-15T14:38:20.311Z,12.13
2022-11-15T14:40:46.796Z,12.14
2022-11-15T14:43:14.158Z,12.14
2022-11-15T14:45:41.246Z,12.20
2022-11-15T14:48:07.801Z,12.20
2022-11-15T14:50:35.103Z,12.20
2022-11-15T14:53:02.332Z,12.21
2022-11-15T14:55:32.859Z,12.22
2022-11-15T14:58:00.120Z,12.31
2022-11-15T15:00:30.856Z,12.29
2022-11-15T15:03:00.348Z,12.21
2022-11-15T15:05:31.908Z,12.27
2022-11-15T15:07:58.391Z,12.39
2022-11-15T15:10:40.223Z,12.36
2022-11-15T15:13:20.260Z,12.25
2022-11-15T15:15:47.879Z,12.08
2022-11-15T15:18:14.500Z,12.06
2022-11-15T15:20:42.957Z,11.84
2022-11-15T15:23:19.811Z,11.84
2022-11-15T15:25:48.712Z,11.76
2022-11-15T15:28:15.696Z,11.78
2022-11-15T15:30:42.157Z,11.88
2022-11-15T15:33:08.583Z,11.87
2022-11-15T15:35:36.069Z,11.84
2022-11-15T15:38:03.219Z,11.65
2022-11-15T15:40:32.188Z,11.58
2022-11-15T15:42:58.703Z,11.55
2022-11-15T15:45:26.582Z,11.42
2022-11-15T15:47:53.109Z,11.39
2022-11-15T15:50:29.343Z,11.34
2022-11-15T15:52:58.238Z,11.25
2022-11-15T15:55:25.125Z,11.24
2022-11-15T15:57:51.811Z,11.29
2022-11-15T16:00:19.682Z,11.28
2022-11-15T16:02:46.763Z,11.29
2022-11-15T16:05:13.780Z,11.31
2022-11-15T16:07:41.408Z,11.36
2022-11-15T16:10:22.187Z,11.41
2022-11-15T16:12:49.468Z,11.40
2022-11-15T16:15:16.330Z,11.43
2022-11-15T16:17:48.916Z,11.48
2022-11-15T16:20:38.606Z,11.47
2022-11-15T16:23:09.561Z,11.35
2022-11-15T16:25:50.546Z,11.24
2022-11-15T16:28:23.831Z,11.30
2022-11-15T16:30:59.554Z,11.34
2022-11-15T16:33:26.025Z,11.39
2022-11-15T16:35:52.550Z,11.49
2022-11-15T16:38:19.139Z,11.53
2022-11-15T16:40:45.923Z,11.51
2022-11-15T16:43:12.412Z,11.47
2022-11-15T16:45:39.132Z,11.47
2022-11-15T16:48:05.882Z,11.45
2022-11-15T16:50:40.967Z,11.42
2022-11-15T16:53:07.607Z,11.37
2022-11-15T16:55:34.006Z,11.36
2022-11-15T16:58:01.747Z,11.36
2022-11-15T17:00:28.752Z,11.19
2022-11-15T17:02:56.078Z,11.16
2022-11-15T17:05:24.427Z,10.98
2022-11-15T17:07:54.109Z,10.97
2022-11-15T17:10:23.320Z,10.99
2022-11-15T17:12:50.748Z,10.99
2022-11-15T17:15:17.799Z,10.91
2022-11-15T17:17:44.748Z,10.62
2022-11-15T17:20:15.209Z,10.60
2022-11-15T17:22:41.904Z,10.64
2022-11-15T17:25:08.669Z,10.70
2022-11-15T17:27:35.240Z,10.73
2022-11-15T17:30:01.747Z,10.69
2022-11-15T17:32:28.309Z,10.68
2022-11-15T17:34:54.724Z,10.71
2022-11-15T17:37:21.102Z,10.75
2022-11-15T17:39:47.544Z,10.74
2022-11-15T17:42:13.945Z,10.80
2022-11-15T17:44:40.397Z,10.83
2022-11-15T17:47:06.892Z,10.79
2022-11-15T17:49:34.944Z,10.78
2022-11-15T17:52:01.393Z,10.77
2022-11-15T17:54:27.780Z,10.78
2022-11-15T17:56:54.229Z,10.76
2022-11-15T17:59:21.774Z,10.78
2022-11-15T18:01:48.270Z,10.83
2022-11-15T18:04:15.264Z,10.72
2022-11-15T18:06:42.292Z,10.57
2022-11-15T18:09:08.911Z,10.48
2022-11-15T18:11:41.431Z,10.45
2022-11-15T18:14:12.549Z,10.53
2022-11-15T18:16:40.223Z,10.45
2022-11-15T18:19:13.125Z,10.40
2022-11-15T18:21:56.913Z,10.54
2022-11-15T18:24:25.031Z,10.68
2022-11-15T18:26:51.476Z,10.71
2022-11-15T18:29:18.409Z,10.60
2022-11-15T18:31:47.772Z,10.58
2022-11-15T18:34:14.533Z,10.50
2022-11-15T18:36:41.263Z,10.52
2022-11-15T18:39:07.686Z,10.44
2022-11-15T18:41:34.574Z,10.42
2022-11-15T18:44:02.492Z,10.36
2022-11-15T18:46:31.769Z,10.45
2022-11-15T18:49:00.247Z,10.38
2022-11-15T18:51:30.105Z,10.36
2022-11-15T18:53:59.674Z,10.37
2022-11-15T18:56:28.260Z,10.38
2022-11-15T18:58:56.912Z,10.30
2022-11-15T19:01:26.475Z,10.28
2022-11-15T19:03:55.619Z,10.28
2022-11-15T19:06:27.398Z,10.23
2022-11-15T19:08:56.462Z,10.20
2022-11-15T19:11:27.985Z,10.22
2022-11-15T19:14:03.154Z,10.21
2022-11-15T19:16:33.071Z,10.20
2022-11-15T19:19:02.165Z,10.24
2022-11-15T19:21:30.850Z,10.24
2022-11-15T19:23:58.060Z,10.27
2022-11-15T19:26:25.596Z,10.20
2022-11-15T19:28:57.269Z,10.11
2022-11-15T19:31:24.305Z,10.06
2022-11-15T19:33:52.527Z,10.00
2022-11-15T19:36:32.394Z,9.71
2022-11-15T19:39:05.448Z,9.56
2022-11-15T19:41:32.375Z,9.56
2022-11-15T19:43:59.040Z,9.55
2022-11-15T19:46:26.821Z,9.62
2022-11-15T19:48:53.912Z,9.60
2022-11-15T19:51:23.123Z,9.47
2022-11-15T19:53:54.480Z,9.32
2022-11-15T19:56:21.886Z,9.22
2022-11-15T19:58:53.469Z,9.23
2022-11-15T20:01:19.799Z,9.30
2022-11-15T20:03:47.983Z,9.37
2022-11-15T20:06:17.196Z,9.41
2022-11-15T20:08:45.022Z,9.40
2022-11-15T20:11:12.463Z,9.41
2022-11-15T20:13:39.204Z,9.41
2022-11-15T20:16:06.046Z,9.41
2022-11-15T20:18:32.960Z,9.44
2022-11-15T20:21:00.089Z,9.43
2022-11-15T20:23:27.192Z,9.47
2022-11-15T20:25:54.240Z,9.48
2022-11-15T20:28:27.031Z,9.49
2022-11-15T20:30:59.245Z,9.50
2022-11-15T20:33:26.802Z,9.50
2022-11-15T20:35:54.303Z,9.54
2022-11-15T20:38:21.617Z,9.65
2022-11-15T20:40:49.501Z,9.64
2022-11-15T20:43:17.883Z,9.56
2022-11-15T20:45:46.266Z,9.59
2022-11-15T20:48:13.911Z,9.55
2022-11-15T20:50:43.263Z,9.65
2022-11-15T20:53:12.624Z,9.56
2022-11-15T20:55:41.304Z,9.60
2022-11-15T20:58:09.164Z,9.56
2022-11-15T21:00:36.963Z,9.48
2022-11-15T21:03:07.278Z,9.49
2022-11-15T21:05:37.851Z,9.53
2022-11-15T21:08:04.475Z,9.49
2022-11-15T21:10:49.643Z,9.47
2022-11-15T21:13:16.291Z,9.51
2022-11-15T21:15:43.165Z,9.56
2022-11-15T21:18:09.893Z,9.53
2022-11-15T21:20:36.363Z,9.50
2022-11-15T21:23:03.342Z,9.55
2022-11-15T21:25:29.862Z,9.67
2022-11-15T21:27:56.355Z,9.93
2022-11-15T21:30:22.810Z,9.86
2022-11-15T21:32:49.210Z,9.74
2022-11-15T21:35:15.692Z,9.67
2022-11-15T21:37:42.187Z,9.74
2022-11-15T21:40:09.083Z,9.89
2022-11-15T21:42:35.560Z,9.87
2022-11-15T21:45:02.221Z,9.89
2022-11-15T21:47:28.709Z,9.74
2022-11-15T21:49:55.127Z,9.60
2022-11-15T21:52:21.654Z,9.67
2022-11-15T21:54:48.093Z,9.65
2022-11-15T21:57:14.473Z,9.52
2022-11-15T22:00:00.845Z,9.43
2022-11-15T22:02:27.270Z,9.35
2022-11-15T22:04:53.660Z,9.30
2022-11-15T22:07:20.379Z,9.40
2022-11-15T22:09:46.990Z,9.48
2022-11-15T22:12:13.388Z,9.52
2022-11-15T22:14:39.805Z,9.58
2022-11-15T22:17:06.255Z,9.47
2022-11-15T22:19:32.747Z,9.27
2022-11-15T22:21:59.217Z,9.09
2022-11-15T22:24:25.822Z,9.02
2022-11-15T22:26:52.287Z,8.88
2022-11-15T22:29:18.832Z,8.92
2022-11-15T22:31:46.446Z,9.08
2022-11-15T22:34:12.921Z,9.14
2022-11-15T22:37:05.757Z,8.90
2022-11-15T22:39:31.674Z,8.67
2022-11-15T22:41:59.040Z,8.63
2022-11-15T22:44:25.470Z,8.67
2022-11-15T22:46:51.995Z,8.70
2022-11-15T22:49:18.451Z,8.64
2022-11-15T22:51:44.963Z,8.61
2022-11-15T22:54:11.480Z,8.74
2022-11-15T22:56:37.992Z,8.65
2022-11-15T22:59:04.467Z,8.58
2022-11-15T23:01:30.975Z,8.52
2022-11-15T23:03:57.557Z,8.45
2022-11-15T23:06:24.063Z,8.42
2022-11-15T23:08:50.540Z,8.41
2022-11-15T23:11:36.036Z,8.43
2022-11-15T23:14:02.588Z,8.52
2022-11-15T23:16:35.279Z,8.58
2022-11-15T23:19:05.004Z,8.64
2022-11-15T23:21:59.034Z,8.75
2022-11-15T23:24:26.287Z,8.76
2022-11-15T23:26:55.812Z,8.66
2022-11-15T23:29:24.839Z,8.59
2022-11-15T23:32:11.224Z,8.63
2022-11-15T23:34:40.232Z,8.64
2022-11-15T23:37:08.410Z,8.73
2022-11-15T23:39:34.871Z,8.67
2022-11-15T23:42:07.544Z,8.64
2022-11-15T23:44:35.399Z,8.55
2022-11-15T23:47:01.888Z,8.55
2022-11-15T23:49:28.339Z,8.49
2022-11-15T23:51:55.248Z,8.38
2022-11-15T23:54:21.725Z,8.31
2022-11-15T23:56:48.222Z,8.29
2022-11-15T23:59:14.771Z,8.29
